Milenium Dos — ECCX — position and weather

sailwx.info

Track history (hours):
 
Tides and Currents Weather Stations Pressure Air Temp Water Temp Dewpoint Dewpoint Depression Visibility Wind Speed Wind Dir Waves Ship Positions

Milenium Dos

Last reported at 2018-Jun-19 00:34 UTC. Time now 2018-Jun-22 16:42 UTC.
Position N 36°08' W 005°26'.

Length 97 m; draft 2.7 m.

Type: High speed craft. MMSI: 224239000.

Date/timePositionNaut miles runAvg speedWind from/ knotsBaromVisibWave heightAir tempDewpointWater temp
2018-Jun-19 00:34N 36°08' W 005°26'0 0.0
2018-Jun-19 00:28N 36°08' W 005°26'5 1.4
2018-Jun-18 21:07N 36°04' W 005°23'328.3
2018-Jun-18 21:00N 36°01' W 005°21'814.9
2018-Jun-18 20:29N 35°54' W 005°19'0 0.1
2018-Jun-18 20:00N 35°54' W 005°19'1020.7
2018-Jun-18 19:30N 36°04' W 005°22'4 2.4
2018-Jun-18 17:46N 35°60' W 005°21'624.2
2018-Jun-18 17:30N 35°54' W 005°19'1 1.0
2018-Jun-18 17:01N 35°54' W 005°19'0 0.4
2018-Jun-18 16:30N 35°54' W 005°19'8 4.0
2018-Jun-18 14:36N 36°01' W 005°22'327.3
2018-Jun-18 14:30N 35°59' W 005°21'510.3
2018-Jun-18 14:00N 35°54' W 005°19'0 0.0
2018-Jun-18 13:30N 35°54' W 005°19'8 4.1
2018-Jun-18 11:29N 36°02' W 005°22'817.5
2018-Jun-18 11:00N 35°54' W 005°19'1 1.1
2018-Jun-18 10:31N 35°54' W 005°19'7 2.9
2018-Jun-18 07:54N 36°01' W 005°22'819.0
2018-Jun-18 07:30N 35°54' W 005°19'0 0.0
2018-Jun-18 07:00N 35°54' W 005°19'713.2
2018-Jun-18 06:31N 36°00' W 005°21'917.7
2018-Jun-18 06:00N 36°08' W 005°26'0 0.1
2018-Jun-18 02:03N 36°08' W 005°26'0 0.1
2018-Jun-18 01:59N 36°08' W 005°26'2 0.3
2018-Jun-17 21:25N 36°09' W 005°25'1228.3
2018-Jun-17 21:01N 35°58' W 005°20'4 8.2
2018-Jun-17 20:30N 35°54' W 005°19'5 9.1
2018-Jun-17 20:00N 35°58' W 005°19'1122.5
2018-Jun-17 19:30N 36°08' W 005°26'0 0.4
2018-Jun-17 18:24N 36°08' W 005°26'611.9
2018-Jun-17 17:54N 36°03' W 005°23'924.4
2018-Jun-17 17:30N 35°54' W 005°19'0 0.7
2018-Jun-17 17:01N 35°54' W 005°19'2 3.8
2018-Jun-17 16:30N 35°56' W 005°19'1410.3
2018-Jun-17 15:11N 36°08' W 005°26'0 0.1
2018-Jun-17 14:59N 36°08' W 005°26'510.3
2018-Jun-17 14:31N 36°04' W 005°22'1121.4
2018-Jun-17 14:00N 35°54' W 005°19'0 0.0
2018-Jun-17 13:30N 35°54' W 005°19'1223.5
2018-Jun-17 13:00N 36°05' W 005°23'4 5.3
2018-Jun-17 12:16N 36°08' W 005°26'1 2.1
2018-Jun-17 12:00N 36°08' W 005°26'713.9
2018-Jun-17 11:30N 36°02' W 005°22'918.1
2018-Jun-17 11:00N 35°54' W 005°19'0 0.2
2018-Jun-17 10:30N 35°54' W 005°19'15 7.9
2018-Jun-17 08:36N 36°08' W 005°26'0 3.3
2018-Jun-17 08:30N 36°08' W 005°26'816.0
2018-Jun-17 08:00N 36°00' W 005°23'714.7
2018-Jun-17 07:31N 35°54' W 005°19'0 0.0
2018-Jun-17 07:01N 35°54' W 005°19'612.6
2018-Jun-17 06:31N 35°60' W 005°19'1018.4
2018-Jun-17 05:59N 36°08' W 005°26'0 0.1
2018-Jun-17 00:04N 36°08' W 005°26'0 0.0
2018-Jun-16 23:57N 36°08' W 005°26'0 0.0
2018-Jun-16 21:32N 36°08' W 005°26'0 2.4
2018-Jun-16 21:28N 36°08' W 005°26'715.1
2018-Jun-16 21:01N 36°02' W 005°21'917.4
2018-Jun-16 20:30N 35°54' W 005°19'0 0.4
2018-Jun-16 20:00N 35°54' W 005°19'1224.0
2018-Jun-16 19:30N 36°06' W 005°23'1 0.6
2018-Jun-16 17:55N 36°05' W 005°22'1127.5
2018-Jun-16 17:30N 35°54' W 005°19'1 1.2
2018-Jun-16 17:01N 35°54' W 005°19'0 0.3
2018-Jun-16 16:31N 35°54' W 005°19'1518.0
2018-Jun-16 15:39N 36°08' W 005°26'0 1.6
2018-Jun-16 15:25N 36°08' W 005°26'0 0.0
2018-Jun-16 14:58N 36°08' W 005°26'912.0
2018-Jun-16 14:13N 35°60' W 005°20'627.9
2018-Jun-16 14:01N 35°55' W 005°19'1 2.3
2018-Jun-16 13:30N 35°54' W 005°19'816.1
2018-Jun-16 13:00N 36°02' W 005°22'2 1.1
2018-Jun-16 11:35N 36°03' W 005°23'327.4
2018-Jun-16 11:29N 36°00' W 005°22'714.7
2018-Jun-16 11:00N 35°54' W 005°19'3 5.4
2018-Jun-16 10:30N 35°56' W 005°19'5 2.0
2018-Jun-16 07:56N 36°01' W 005°22'817.6
2018-Jun-16 07:30N 35°54' W 005°19'0 0.0
2018-Jun-16 07:00N 35°54' W 005°19'815.6
2018-Jun-16 06:31N 36°01' W 005°22'815.2
2018-Jun-16 06:00N 36°08' W 005°26'0 0.1
2018-Jun-16 05:30N 36°08' W 005°26'0 0.0
2018-Jun-16 05:00N 36°08' W 005°26'0 0.0
2018-Jun-16 04:31N 36°08' W 005°26'0 0.0
2018-Jun-16 04:01N 36°08' W 005°26'0 0.0
2018-Jun-16 03:31N 36°08' W 005°26'0 0.0
2018-Jun-16 03:01N 36°08' W 005°26'0 0.0
2018-Jun-16 02:31N 36°08' W 005°26'0 0.0
2018-Jun-16 02:01N 36°08' W 005°26'0 0.0
2018-Jun-16 01:31N 36°08' W 005°26'0 0.0
2018-Jun-16 01:00N 36°08' W 005°26'0 0.0
2018-Jun-16 00:31N 36°08' W 005°26'0 0.0
2018-Jun-16 00:00N 36°08' W 005°26'0 0.0
2018-Jun-15 23:30N 36°08' W 005°26'0 0.0
2018-Jun-15 23:00N 36°08' W 005°26'0 0.0
2018-Jun-15 22:30N 36°08' W 005°26'1 1.8
2018-Jun-15 22:00N 36°09' W 005°26'2 3.6
2018-Jun-15 21:30N 36°09' W 005°24'1327.3
2018-Jun-15 21:01N 35°56' W 005°19'2 4.1
2018-Jun-15 20:30N 35°54' W 005°19'510.3
2018-Jun-15 20:00N 35°59' W 005°19'1122.6
2018-Jun-15 19:30N 36°09' W 005°26'1 2.1
2018-Jun-15 18:57N 36°08' W 005°26'0 0.0
2018-Jun-15 18:24N 36°08' W 005°26'1 3.4
2018-Jun-15 17:58N 36°09' W 005°25'1225.7
2018-Jun-15 17:30N 35°58' W 005°20'4 8.5
2018-Jun-15 17:00N 35°54' W 005°19'0 0.5
2018-Jun-15 16:31N 35°54' W 005°19'8 3.7
2018-Jun-15 14:24N 36°01' W 005°20'819.8
2018-Jun-15 14:00N 35°54' W 005°19'0 0.2
2018-Jun-15 13:31N 35°54' W 005°19'9 4.8
2018-Jun-15 11:37N 36°03' W 005°22'327.9
2018-Jun-15 11:31N 35°59' W 005°22'612.5
2018-Jun-15 11:00N 35°54' W 005°19'1 2.2
2018-Jun-15 10:30N 35°55' W 005°19'8 3.0
2018-Jun-15 08:01N 36°02' W 005°21'029.4
2018-Jun-15 08:00N 36°01' W 005°21'816.2
2018-Jun-15 07:30N 35°54' W 005°19'0 0.2
2018-Jun-15 07:01N 35°54' W 005°19'815.2
2018-Jun-15 06:30N 36°01' W 005°20'8 8.6
2018-Jun-15 05:34N 36°08' W 005°26'0 0.0
2018-Jun-15 05:30N 36°08' W 005°26'0 0.0
2018-Jun-15 05:00N 36°08' W 005°26'0 0.0
2018-Jun-15 04:30N 36°08' W 005°26'0 0.0
2018-Jun-15 01:14N 36°08' W 005°26'0 0.0
2018-Jun-15 01:00N 36°08' W 005°26'0 0.0
2018-Jun-15 00:23N 36°08' W 005°26'0 0.0
2018-Jun-14 23:59N 36°08' W 005°26'2 0.7
2018-Jun-14 21:14N 36°08' W 005°24'729.1
2018-Jun-14 21:01N 36°02' W 005°21'816.6
2018-Jun-14 20:30N 35°54' W 005°19'0 0.0
2018-Jun-14 20:00N 35°54' W 005°19'1121.3
2018-Jun-14 19:31N 36°04' W 005°23'5 4.1
2018-Jun-14 18:20N 36°08' W 005°26'815.6
2018-Jun-14 17:51N 36°02' W 005°21'823.7
2018-Jun-14 17:30N 35°54' W 005°19'0 1.0
2018-Jun-14 17:01N 35°54' W 005°19'0 0.7
2018-Jun-14 16:31N 35°54' W 005°19'1325.5
2018-Jun-14 16:00N 36°06' W 005°23'3 3.0
2018-Jun-14 15:00N 36°08' W 005°26'915.6
2018-Jun-14 14:27N 36°01' W 005°21'716.6
2018-Jun-14 14:00N 35°54' W 005°19'0 0.3
2018-Jun-14 13:30N 35°54' W 005°19'8 4.6
2018-Jun-14 11:41N 36°02' W 005°22'526.4
2018-Jun-14 11:31N 35°57' W 005°20'4 7.3
2018-Jun-14 11:00N 35°54' W 005°19'1 1.1
2018-Jun-14 10:31N 35°54' W 005°19'8 3.3
2018-Jun-14 08:06N 36°01' W 005°22'327.7
2018-Jun-14 08:01N 35°59' W 005°21'510.4
2018-Jun-14 07:30N 35°54' W 005°19'0 0.3
2018-Jun-14 07:01N 35°54' W 005°19'1018.8
2018-Jun-14 06:30N 36°03' W 005°23'511.3
2018-Jun-14 06:00N 36°08' W 005°26'0 0.1
2018-Jun-14 05:30N 36°08' W 005°26'0 0.0
2018-Jun-13 22:44N 36°08' W 005°26'0 0.0
2018-Jun-13 22:31N 36°08' W 005°26'0 0.0
2018-Jun-13 22:01N 36°08' W 005°26'1 1.2
2018-Jun-13 21:30N 36°08' W 005°26'1019.8
2018-Jun-13 21:01N 35°59' W 005°21'611.7
2018-Jun-13 20:30N 35°54' W 005°19'0 0.7
2018-Jun-13 20:01N 35°54' W 005°19'1325.9
2018-Jun-13 19:30N 36°06' W 005°23'3 1.9
2018-Jun-13 17:46N 36°03' W 005°22'727.5
2018-Jun-13 17:31N 35°56' W 005°20'2 4.8
2018-Jun-13 17:00N 35°54' W 005°19'0 0.2
2018-Jun-13 16:30N 35°54' W 005°19'1522.3
2018-Jun-13 15:49N 36°09' W 005°25'7 4.7
2018-Jun-13 14:14N 36°01' W 005°22'626.6
2018-Jun-13 14:00N 35°56' W 005°19'2 4.6
2018-Jun-13 13:30N 35°54' W 005°19'1620.1
2018-Jun-13 12:43N 36°08' W 005°26'1 2.4
2018-Jun-13 12:30N 36°08' W 005°26'0 0.0
2018-Jun-13 12:00N 36°08' W 005°26'813.2
2018-Jun-13 11:25N 36°01' W 005°22'818.7
2018-Jun-13 11:01N 35°54' W 005°19'0 0.4
2018-Jun-13 10:31N 35°54' W 005°19'8 3.2
2018-Jun-13 08:06N 36°01' W 005°21'227.5
2018-Jun-13 08:01N 35°59' W 005°20'510.6
2018-Jun-13 07:30N 35°54' W 005°19'0 0.1
2018-Jun-13 07:00N 35°54' W 005°19'917.7
2018-Jun-13 06:30N 36°02' W 005°22'612.9
2018-Jun-13 06:00N 36°08' W 005°26'0 0.1
2018-Jun-13 05:30N 36°08' W 005°26'0 0.0
2018-Jun-13 04:59N 36°08' W 005°26'0 0.0
2018-Jun-13 04:30N 36°08' W 005°26'0 0.0
2018-Jun-13 04:00N 36°08' W 005°26'0 0.0
2018-Jun-13 03:18N 36°08' W 005°26'0 0.0
2018-Jun-13 02:29N 36°08' W 005°26'0 0.0
2018-Jun-13 01:57N 36°08' W 005°26'0 0.0
2018-Jun-13 01:30N 36°08' W 005°26'0 0.0
2018-Jun-13 01:00N 36°08' W 005°26'0 0.0
2018-Jun-13 00:30N 36°08' W 005°26'0 0.0
2018-Jun-12 23:59N 36°08' W 005°26'9 3.0
2018-Jun-12 20:58N 36°00' W 005°21'714.2
2018-Jun-12 20:30N 35°54' W 005°19'0 0.2
2018-Jun-12 20:00N 35°54' W 005°19'1121.0
2018-Jun-12 19:30N 36°04' W 005°23'1 0.5
2018-Jun-12 17:49N 36°03' W 005°23'826.0
2018-Jun-12 17:31N 35°56' W 005°20'2 3.9
2018-Jun-12 17:00N 35°54' W 005°19'2 3.7
2018-Jun-12 16:31N 35°55' W 005°19'6 2.8
2018-Jun-12 14:31N 36°01' W 005°20'025.7
2018-Jun-12 14:30N 36°01' W 005°20'714.0
2018-Jun-12 14:00N 35°54' W 005°19'0 0.6
2018-Jun-12 13:31N 35°54' W 005°19'7 3.7
2018-Jun-12 11:34N 36°01' W 005°21'126.5
2018-Jun-12 11:31N 35°59' W 005°21'611.3
2018-Jun-12 10:59N 35°54' W 005°19'1 2.6
2018-Jun-12 10:30N 35°55' W 005°18'8 3.2
2018-Jun-12 07:59N 36°02' W 005°22'918.6
2018-Jun-12 07:31N 35°54' W 005°19'0 0.3
2018-Jun-12 07:00N 35°54' W 005°19'15 9.0
2018-Jun-12 05:19N 36°08' W 005°26'0 0.0
2018-Jun-12 05:00N 36°08' W 005°26'0 0.0
2018-Jun-12 04:26N 36°08' W 005°26'0 0.0
2018-Jun-12 04:00N 36°08' W 005°26'0 0.0
2018-Jun-12 03:30N 36°08' W 005°26'0 0.0
2018-Jun-12 02:59N 36°08' W 005°26'0 0.0
2018-Jun-12 02:30N 36°08' W 005°26'0 0.0
2018-Jun-12 02:00N 36°08' W 005°26'0 0.0
2018-Jun-12 01:30N 36°08' W 005°26'0 0.0
2018-Jun-12 01:00N 36°08' W 005°26'0 0.0
2018-Jun-12 00:23N 36°08' W 005°26'0 0.0
2018-Jun-12 00:00N 36°08' W 005°26'0 0.0
2018-Jun-11 23:30N 36°08' W 005°26'0 0.0
2018-Jun-11 23:00N 36°08' W 005°26'0 0.0
2018-Jun-11 22:30N 36°08' W 005°26'0 0.0
2018-Jun-11 21:56N 36°08' W 005°26'1 1.5
2018-Jun-11 21:30N 36°08' W 005°26'1019.4
2018-Jun-11 21:01N 35°60' W 005°20'612.3
2018-Jun-11 20:30N 35°54' W 005°19'0 0.4
2018-Jun-11 20:01N 35°54' W 005°19'1224.5
2018-Jun-11 19:31N 36°06' W 005°23'4 6.8
2018-Jun-11 19:00N 36°08' W 005°26'0 0.0
2018-Jun-11 18:30N 36°08' W 005°26'710.1
2018-Jun-11 17:46N 36°01' W 005°22'625.8
2018-Jun-11 17:31N 35°55' W 005°19'2 3.2
2018-Jun-11 17:01N 35°54' W 005°19'0 0.2
2018-Jun-11 16:30N 35°54' W 005°19'8 4.1
2018-Jun-11 14:31N 36°02' W 005°20'025.4
2018-Jun-11 14:30N 36°02' W 005°20'8 1.1
2018-Jun-11 07:12N 35°54' W 005°19'0 0.2
2018-Jun-11 07:00N 35°54' W 005°19'816.7
2018-Jun-11 06:31N 36°02' W 005°22'712.9
2018-Jun-11 05:58N 36°08' W 005°26'0 0.1
2018-Jun-11 05:27N 36°08' W 005°26'0 0.0
2018-Jun-11 05:00N 36°08' W 005°26'0 0.0
2018-Jun-11 04:30N 36°08' W 005°26'0 0.0
2018-Jun-11 04:00N 36°08' W 005°26'0 0.0
2018-Jun-11 03:30N 36°08' W 005°26'0 0.0
2018-Jun-11 03:00N 36°08' W 005°26'0 0.0
2018-Jun-11 02:30N 36°08' W 005°26'0 0.0
2018-Jun-11 02:00N 36°08' W 005°26'0 0.0
2018-Jun-11 01:30N 36°08' W 005°26'0 0.0
2018-Jun-11 00:57N 36°08' W 005°26'0 0.0
2018-Jun-11 00:30N 36°08' W 005°26'0 0.1
2018-Jun-10 21:24N 36°08' W 005°26'615.1
2018-Jun-10 21:00N 36°03' W 005°21'1019.8
2018-Jun-10 20:30N 35°54' W 005°19'0 0.5
2018-Jun-10 20:00N 35°54' W 005°19'1325.5
2018-Jun-10 19:30N 36°06' W 005°23'3 2.1
2018-Jun-10 18:12N 36°08' W 005°26'2 8.0
2018-Jun-10 17:56N 36°07' W 005°24'1227.2
2018-Jun-10 17:31N 35°56' W 005°20'2 4.9
2018-Jun-10 17:00N 35°54' W 005°19'0 0.1
2018-Jun-10 16:30N 35°54' W 005°19'1121.1
2018-Jun-10 16:01N 36°04' W 005°23'5 3.9
2018-Jun-10 14:45N 36°08' W 005°26'1520.9
2018-Jun-10 14:01N 35°54' W 005°19'1 1.0
2018-Jun-10 13:30N 35°54' W 005°19'1222.5
2018-Jun-10 12:59N 36°05' W 005°24'4 3.3
2018-Jun-10 11:55N 36°08' W 005°26'511.8
2018-Jun-10 11:31N 36°04' W 005°23'1121.3
2018-Jun-10 11:00N 35°54' W 005°19'0 0.0
2018-Jun-10 10:30N 35°54' W 005°19'1019.1
2018-Jun-10 10:01N 36°03' W 005°23'6 3.7
2018-Jun-10 08:26N 36°08' W 005°26'612.8
2018-Jun-10 08:01N 36°04' W 005°21'1020.8
2018-Jun-10 07:30N 35°54' W 005°19'0 0.0
2018-Jun-10 07:00N 35°54' W 005°19'714.8
2018-Jun-10 06:31N 36°01' W 005°21'816.2
2018-Jun-10 06:01N 36°08' W 005°26'0 0.1
2018-Jun-10 05:27N 36°08' W 005°26'0 0.0
2018-Jun-10 05:00N 36°08' W 005°26'0 0.0
2018-Jun-10 04:30N 36°08' W 005°26'0 0.0
2018-Jun-10 04:00N 36°08' W 005°26'0 0.0
2018-Jun-10 03:30N 36°08' W 005°26'0 0.0
2018-Jun-10 03:00N 36°08' W 005°26'0 0.0
2018-Jun-10 02:30N 36°08' W 005°26'0 0.0
2018-Jun-10 01:58N 36°08' W 005°26'0 0.0
2018-Jun-10 01:30N 36°08' W 005°26'0 0.0
2018-Jun-10 00:59N 36°08' W 005°26'0 0.0
2018-Jun-10 00:29N 36°08' W 005°26'0 0.0
2018-Jun-10 00:00N 36°08' W 005°26'0 0.0
2018-Jun-09 23:30N 36°08' W 005°26'0 0.0
2018-Jun-09 23:00N 36°08' W 005°26'0 0.0
2018-Jun-09 22:28N 36°08' W 005°26'0 0.0
2018-Jun-09 22:00N 36°08' W 005°26'0 0.0
2018-Jun-09 21:30N 36°08' W 005°26'5 9.9
2018-Jun-09 21:01N 36°05' W 005°22'1121.9
2018-Jun-09 20:30N 35°54' W 005°19'0 0.1
2018-Jun-09 20:01N 35°54' W 005°19'1121.5
2018-Jun-09 19:31N 36°04' W 005°23'5 8.4
2018-Jun-09 18:57N 36°08' W 005°26'0 0.0
2018-Jun-09 18:28N 36°08' W 005°26'1 2.8
2018-Jun-09 18:01N 36°09' W 005°26'1325.6
2018-Jun-09 17:30N 35°57' W 005°20'3 6.9
2018-Jun-09 17:00N 35°54' W 005°19'0 0.1
2018-Jun-09 16:30N 35°54' W 005°19'1020.4
2018-Jun-09 16:01N 36°04' W 005°22'5 5.3
2018-Jun-09 15:00N 36°08' W 005°26'2 3.5
2018-Jun-09 14:30N 36°09' W 005°24'1427.9
2018-Jun-09 14:01N 35°55' W 005°19'2 3.7
2018-Jun-09 13:31N 35°54' W 005°19'1019.2
2018-Jun-09 13:01N 36°03' W 005°22'611.8
2018-Jun-09 12:30N 36°08' W 005°26'0 0.1
2018-Jun-09 12:00N 36°08' W 005°26'612.6
2018-Jun-09 11:31N 36°03' W 005°22'918.5
2018-Jun-09 11:01N 35°54' W 005°19'0 0.3
2018-Jun-09 10:31N 35°54' W 005°19'1121.8
2018-Jun-09 10:01N 36°04' W 005°23'3 1.5
2018-Jun-09 07:52N 36°02' W 005°20'822.4
2018-Jun-09 07:31N 35°54' W 005°19'0 0.1
2018-Jun-09 07:00N 35°54' W 005°19'611.9
2018-Jun-09 06:31N 35°60' W 005°19'10 1.7
2018-Jun-09 00:41N 36°08' W 005°26'  
Track history (hours):
 
Tides and Currents Weather Stations Pressure Air Temp Water Temp Dewpoint Dewpoint Depression Visibility Wind Speed Wind Dir Waves Ship Positions

Milenium Dos

Last reported at 2018-Jun-19 00:34 UTC. Time now 2018-Jun-22 16:42 UTC.
Position N 36°08' W 005°26'.

Length 97 m; draft 2.7 m.

Type: High speed craft. MMSI: 224239000.

Date/timePositionNaut miles runAvg speedWind from/ knotsBaromVisibWave heightAir tempDewpointWater temp
2018-Jun-19 00:34N 36°08' W 005°26'0 0.0
2018-Jun-19 00:28N 36°08' W 005°26'5 1.4
2018-Jun-18 21:07N 36°04' W 005°23'328.3
2018-Jun-18 21:00N 36°01' W 005°21'814.9
2018-Jun-18 20:29N 35°54' W 005°19'0 0.1
2018-Jun-18 20:00N 35°54' W 005°19'1020.7
2018-Jun-18 19:30N 36°04' W 005°22'4 2.4
2018-Jun-18 17:46N 35°60' W 005°21'624.2
2018-Jun-18 17:30N 35°54' W 005°19'1 1.0
2018-Jun-18 17:01N 35°54' W 005°19'0 0.4
2018-Jun-18 16:30N 35°54' W 005°19'8 4.0
2018-Jun-18 14:36N 36°01' W 005°22'327.3
2018-Jun-18 14:30N 35°59' W 005°21'510.3
2018-Jun-18 14:00N 35°54' W 005°19'0 0.0
2018-Jun-18 13:30N 35°54' W 005°19'8 4.1
2018-Jun-18 11:29N 36°02' W 005°22'817.5
2018-Jun-18 11:00N 35°54' W 005°19'1 1.1
2018-Jun-18 10:31N 35°54' W 005°19'7 2.9
2018-Jun-18 07:54N 36°01' W 005°22'819.0
2018-Jun-18 07:30N 35°54' W 005°19'0 0.0
2018-Jun-18 07:00N 35°54' W 005°19'713.2
2018-Jun-18 06:31N 36°00' W 005°21'917.7
2018-Jun-18 06:00N 36°08' W 005°26'0 0.1
2018-Jun-18 02:03N 36°08' W 005°26'0 0.1
2018-Jun-18 01:59N 36°08' W 005°26'2 0.3
2018-Jun-17 21:25N 36°09' W 005°25'1228.3
2018-Jun-17 21:01N 35°58' W 005°20'4 8.2
2018-Jun-17 20:30N 35°54' W 005°19'5 9.1
2018-Jun-17 20:00N 35°58' W 005°19'1122.5
2018-Jun-17 19:30N 36°08' W 005°26'0 0.4
2018-Jun-17 18:24N 36°08' W 005°26'611.9
2018-Jun-17 17:54N 36°03' W 005°23'924.4
2018-Jun-17 17:30N 35°54' W 005°19'0 0.7
2018-Jun-17 17:01N 35°54' W 005°19'2 3.8
2018-Jun-17 16:30N 35°56' W 005°19'1410.3
2018-Jun-17 15:11N 36°08' W 005°26'0 0.1
2018-Jun-17 14:59N 36°08' W 005°26'510.3
2018-Jun-17 14:31N 36°04' W 005°22'1121.4
2018-Jun-17 14:00N 35°54' W 005°19'0 0.0
2018-Jun-17 13:30N 35°54' W 005°19'1223.5
2018-Jun-17 13:00N 36°05' W 005°23'4 5.3
2018-Jun-17 12:16N 36°08' W 005°26'1 2.1
2018-Jun-17 12:00N 36°08' W 005°26'713.9
2018-Jun-17 11:30N 36°02' W 005°22'918.1
2018-Jun-17 11:00N 35°54' W 005°19'0 0.2
2018-Jun-17 10:30N 35°54' W 005°19'15 7.9
2018-Jun-17 08:36N 36°08' W 005°26'0 3.3
2018-Jun-17 08:30N 36°08' W 005°26'816.0
2018-Jun-17 08:00N 36°00' W 005°23'714.7
2018-Jun-17 07:31N 35°54' W 005°19'0 0.0
2018-Jun-17 07:01N 35°54' W 005°19'612.6
2018-Jun-17 06:31N 35°60' W 005°19'1018.4
2018-Jun-17 05:59N 36°08' W 005°26'0 0.1
2018-Jun-17 00:04N 36°08' W 005°26'0 0.0
2018-Jun-16 23:57N 36°08' W 005°26'0 0.0
2018-Jun-16 21:32N 36°08' W 005°26'0 2.4
2018-Jun-16 21:28N 36°08' W 005°26'715.1
2018-Jun-16 21:01N 36°02' W 005°21'917.4
2018-Jun-16 20:30N 35°54' W 005°19'0 0.4
2018-Jun-16 20:00N 35°54' W 005°19'1224.0
2018-Jun-16 19:30N 36°06' W 005°23'1 0.6
2018-Jun-16 17:55N 36°05' W 005°22'1127.5
2018-Jun-16 17:30N 35°54' W 005°19'1 1.2
2018-Jun-16 17:01N 35°54' W 005°19'0 0.3
2018-Jun-16 16:31N 35°54' W 005°19'1518.0
2018-Jun-16 15:39N 36°08' W 005°26'0 1.6
2018-Jun-16 15:25N 36°08' W 005°26'0 0.0
2018-Jun-16 14:58N 36°08' W 005°26'912.0
2018-Jun-16 14:13N 35°60' W 005°20'627.9
2018-Jun-16 14:01N 35°55' W 005°19'1 2.3
2018-Jun-16 13:30N 35°54' W 005°19'816.1
2018-Jun-16 13:00N 36°02' W 005°22'2 1.1
2018-Jun-16 11:35N 36°03' W 005°23'327.4
2018-Jun-16 11:29N 36°00' W 005°22'714.7
2018-Jun-16 11:00N 35°54' W 005°19'3 5.4
2018-Jun-16 10:30N 35°56' W 005°19'5 2.0
2018-Jun-16 07:56N 36°01' W 005°22'817.6
2018-Jun-16 07:30N 35°54' W 005°19'0 0.0
2018-Jun-16 07:00N 35°54' W 005°19'815.6
2018-Jun-16 06:31N 36°01' W 005°22'815.2
2018-Jun-16 06:00N 36°08' W 005°26'0 0.1
2018-Jun-16 05:30N 36°08' W 005°26'0 0.0
2018-Jun-16 05:00N 36°08' W 005°26'0 0.0
2018-Jun-16 04:31N 36°08' W 005°26'0 0.0
2018-Jun-16 04:01N 36°08' W 005°26'0 0.0
2018-Jun-16 03:31N 36°08' W 005°26'0 0.0
2018-Jun-16 03:01N 36°08' W 005°26'0 0.0
2018-Jun-16 02:31N 36°08' W 005°26'0 0.0
2018-Jun-16 02:01N 36°08' W 005°26'0 0.0
2018-Jun-16 01:31N 36°08' W 005°26'0 0.0
2018-Jun-16 01:00N 36°08' W 005°26'0 0.0
2018-Jun-16 00:31N 36°08' W 005°26'0 0.0
2018-Jun-16 00:00N 36°08' W 005°26'0 0.0
2018-Jun-15 23:30N 36°08' W 005°26'0 0.0
2018-Jun-15 23:00N 36°08' W 005°26'0 0.0
2018-Jun-15 22:30N 36°08' W 005°26'1 1.8
2018-Jun-15 22:00N 36°09' W 005°26'2 3.6
2018-Jun-15 21:30N 36°09' W 005°24'1327.3
2018-Jun-15 21:01N 35°56' W 005°19'2 4.1
2018-Jun-15 20:30N 35°54' W 005°19'510.3
2018-Jun-15 20:00N 35°59' W 005°19'1122.6
2018-Jun-15 19:30N 36°09' W 005°26'1 2.1
2018-Jun-15 18:57N 36°08' W 005°26'0 0.0
2018-Jun-15 18:24N 36°08' W 005°26'1 3.4
2018-Jun-15 17:58N 36°09' W 005°25'1225.7
2018-Jun-15 17:30N 35°58' W 005°20'4 8.5
2018-Jun-15 17:00N 35°54' W 005°19'0 0.5
2018-Jun-15 16:31N 35°54' W 005°19'8 3.7
2018-Jun-15 14:24N 36°01' W 005°20'819.8
2018-Jun-15 14:00N 35°54' W 005°19'0 0.2
2018-Jun-15 13:31N 35°54' W 005°19'9 4.8
2018-Jun-15 11:37N 36°03' W 005°22'327.9
2018-Jun-15 11:31N 35°59' W 005°22'612.5
2018-Jun-15 11:00N 35°54' W 005°19'1 2.2
2018-Jun-15 10:30N 35°55' W 005°19'8 3.0
2018-Jun-15 08:01N 36°02' W 005°21'029.4
2018-Jun-15 08:00N 36°01' W 005°21'816.2
2018-Jun-15 07:30N 35°54' W 005°19'0 0.2
2018-Jun-15 07:01N 35°54' W 005°19'815.2
2018-Jun-15 06:30N 36°01' W 005°20'8 8.6
2018-Jun-15 05:34N 36°08' W 005°26'0 0.0
2018-Jun-15 05:30N 36°08' W 005°26'0 0.0
2018-Jun-15 05:00N 36°08' W 005°26'0 0.0
2018-Jun-15 04:30N 36°08' W 005°26'0 0.0
2018-Jun-15 01:14N 36°08' W 005°26'0 0.0
2018-Jun-15 01:00N 36°08' W 005°26'0 0.0
2018-Jun-15 00:23N 36°08' W 005°26'0 0.0
2018-Jun-14 23:59N 36°08' W 005°26'2 0.7
2018-Jun-14 21:14N 36°08' W 005°24'729.1
2018-Jun-14 21:01N 36°02' W 005°21'816.6
2018-Jun-14 20:30N 35°54' W 005°19'0 0.0
2018-Jun-14 20:00N 35°54' W 005°19'1121.3
2018-Jun-14 19:31N 36°04' W 005°23'5 4.1
2018-Jun-14 18:20N 36°08' W 005°26'815.6
2018-Jun-14 17:51N 36°02' W 005°21'823.7
2018-Jun-14 17:30N 35°54' W 005°19'0 1.0
2018-Jun-14 17:01N 35°54' W 005°19'0 0.7
2018-Jun-14 16:31N 35°54' W 005°19'1325.5
2018-Jun-14 16:00N 36°06' W 005°23'3 3.0
2018-Jun-14 15:00N 36°08' W 005°26'915.6
2018-Jun-14 14:27N 36°01' W 005°21'716.6
2018-Jun-14 14:00N 35°54' W 005°19'0 0.3
2018-Jun-14 13:30N 35°54' W 005°19'8 4.6
2018-Jun-14 11:41N 36°02' W 005°22'526.4
2018-Jun-14 11:31N 35°57' W 005°20'4 7.3
2018-Jun-14 11:00N 35°54' W 005°19'1 1.1
2018-Jun-14 10:31N 35°54' W 005°19'8 3.3
2018-Jun-14 08:06N 36°01' W 005°22'327.7
2018-Jun-14 08:01N 35°59' W 005°21'510.4
2018-Jun-14 07:30N 35°54' W 005°19'0 0.3
2018-Jun-14 07:01N 35°54' W 005°19'1018.8
2018-Jun-14 06:30N 36°03' W 005°23'511.3
2018-Jun-14 06:00N 36°08' W 005°26'0 0.1
2018-Jun-14 05:30N 36°08' W 005°26'0 0.0
2018-Jun-13 22:44N 36°08' W 005°26'0 0.0
2018-Jun-13 22:31N 36°08' W 005°26'0 0.0
2018-Jun-13 22:01N 36°08' W 005°26'1 1.2
2018-Jun-13 21:30N 36°08' W 005°26'1019.8
2018-Jun-13 21:01N 35°59' W 005°21'611.7
2018-Jun-13 20:30N 35°54' W 005°19'0 0.7
2018-Jun-13 20:01N 35°54' W 005°19'1325.9
2018-Jun-13 19:30N 36°06' W 005°23'3 1.9
2018-Jun-13 17:46N 36°03' W 005°22'727.5
2018-Jun-13 17:31N 35°56' W 005°20'2 4.8
2018-Jun-13 17:00N 35°54' W 005°19'0 0.2
2018-Jun-13 16:30N 35°54' W 005°19'1522.3
2018-Jun-13 15:49N 36°09' W 005°25'7 4.7
2018-Jun-13 14:14N 36°01' W 005°22'626.6
2018-Jun-13 14:00N 35°56' W 005°19'2 4.6
2018-Jun-13 13:30N 35°54' W 005°19'1620.1
2018-Jun-13 12:43N 36°08' W 005°26'1 2.4
2018-Jun-13 12:30N 36°08' W 005°26'0 0.0
2018-Jun-13 12:00N 36°08' W 005°26'813.2
2018-Jun-13 11:25N 36°01' W 005°22'818.7
2018-Jun-13 11:01N 35°54' W 005°19'0 0.4
2018-Jun-13 10:31N 35°54' W 005°19'8 3.2
2018-Jun-13 08:06N 36°01' W 005°21'227.5
2018-Jun-13 08:01N 35°59' W 005°20'510.6
2018-Jun-13 07:30N 35°54' W 005°19'0 0.1
2018-Jun-13 07:00N 35°54' W 005°19'917.7
2018-Jun-13 06:30N 36°02' W 005°22'612.9
2018-Jun-13 06:00N 36°08' W 005°26'0 0.1
2018-Jun-13 05:30N 36°08' W 005°26'0 0.0
2018-Jun-13 04:59N 36°08' W 005°26'0 0.0
2018-Jun-13 04:30N 36°08' W 005°26'0 0.0
2018-Jun-13 04:00N 36°08' W 005°26'0 0.0
2018-Jun-13 03:18N 36°08' W 005°26'0 0.0
2018-Jun-13 02:29N 36°08' W 005°26'0 0.0
2018-Jun-13 01:57N 36°08' W 005°26'0 0.0
2018-Jun-13 01:30N 36°08' W 005°26'0 0.0
2018-Jun-13 01:00N 36°08' W 005°26'0 0.0
2018-Jun-13 00:30N 36°08' W 005°26'0 0.0
2018-Jun-12 23:59N 36°08' W 005°26'9 3.0
2018-Jun-12 20:58N 36°00' W 005°21'714.2
2018-Jun-12 20:30N 35°54' W 005°19'0 0.2
2018-Jun-12 20:00N 35°54' W 005°19'1121.0
2018-Jun-12 19:30N 36°04' W 005°23'1 0.5
2018-Jun-12 17:49N 36°03' W 005°23'826.0
2018-Jun-12 17:31N 35°56' W 005°20'2 3.9
2018-Jun-12 17:00N 35°54' W 005°19'2 3.7
2018-Jun-12 16:31N 35°55' W 005°19'6 2.8
2018-Jun-12 14:31N 36°01' W 005°20'025.7
2018-Jun-12 14:30N 36°01' W 005°20'714.0
2018-Jun-12 14:00N 35°54' W 005°19'0 0.6
2018-Jun-12 13:31N 35°54' W 005°19'7 3.7
2018-Jun-12 11:34N 36°01' W 005°21'126.5
2018-Jun-12 11:31N 35°59' W 005°21'611.3
2018-Jun-12 10:59N 35°54' W 005°19'1 2.6
2018-Jun-12 10:30N 35°55' W 005°18'8 3.2
2018-Jun-12 07:59N 36°02' W 005°22'918.6
2018-Jun-12 07:31N 35°54' W 005°19'0 0.3
2018-Jun-12 07:00N 35°54' W 005°19'15 9.0
2018-Jun-12 05:19N 36°08' W 005°26'0 0.0
2018-Jun-12 05:00N 36°08' W 005°26'0 0.0
2018-Jun-12 04:26N 36°08' W 005°26'0 0.0
2018-Jun-12 04:00N 36°08' W 005°26'0 0.0
2018-Jun-12 03:30N 36°08' W 005°26'0 0.0
2018-Jun-12 02:59N 36°08' W 005°26'0 0.0
2018-Jun-12 02:30N 36°08' W 005°26'0 0.0
2018-Jun-12 02:00N 36°08' W 005°26'0 0.0
2018-Jun-12 01:30N 36°08' W 005°26'0 0.0
2018-Jun-12 01:00N 36°08' W 005°26'0 0.0
2018-Jun-12 00:23N 36°08' W 005°26'0 0.0
2018-Jun-12 00:00N 36°08' W 005°26'0 0.0
2018-Jun-11 23:30N 36°08' W 005°26'0 0.0
2018-Jun-11 23:00N 36°08' W 005°26'0 0.0
2018-Jun-11 22:30N 36°08' W 005°26'0 0.0
2018-Jun-11 21:56N 36°08' W 005°26'1 1.5
2018-Jun-11 21:30N 36°08' W 005°26'1019.4
2018-Jun-11 21:01N 35°60' W 005°20'612.3
2018-Jun-11 20:30N 35°54' W 005°19'0 0.4
2018-Jun-11 20:01N 35°54' W 005°19'1224.5
2018-Jun-11 19:31N 36°06' W 005°23'4 6.8
2018-Jun-11 19:00N 36°08' W 005°26'0 0.0
2018-Jun-11 18:30N 36°08' W 005°26'710.1
2018-Jun-11 17:46N 36°01' W 005°22'625.8
2018-Jun-11 17:31N 35°55' W 005°19'2 3.2
2018-Jun-11 17:01N 35°54' W 005°19'0 0.2
2018-Jun-11 16:30N 35°54' W 005°19'8 4.1
2018-Jun-11 14:31N 36°02' W 005°20'025.4
2018-Jun-11 14:30N 36°02' W 005°20'8 1.1
2018-Jun-11 07:12N 35°54' W 005°19'0 0.2
2018-Jun-11 07:00N 35°54' W 005°19'816.7
2018-Jun-11 06:31N 36°02' W 005°22'712.9
2018-Jun-11 05:58N 36°08' W 005°26'0 0.1
2018-Jun-11 05:27N 36°08' W 005°26'0 0.0
2018-Jun-11 05:00N 36°08' W 005°26'0 0.0
2018-Jun-11 04:30N 36°08' W 005°26'0 0.0
2018-Jun-11 04:00N 36°08' W 005°26'0 0.0
2018-Jun-11 03:30N 36°08' W 005°26'0 0.0
2018-Jun-11 03:00N 36°08' W 005°26'0 0.0
2018-Jun-11 02:30N 36°08' W 005°26'0 0.0
2018-Jun-11 02:00N 36°08' W 005°26'0 0.0
2018-Jun-11 01:30N 36°08' W 005°26'0 0.0
2018-Jun-11 00:57N 36°08' W 005°26'0 0.0
2018-Jun-11 00:30N 36°08' W 005°26'0 0.1
2018-Jun-10 21:24N 36°08' W 005°26'615.1
2018-Jun-10 21:00N 36°03' W 005°21'1019.8
2018-Jun-10 20:30N 35°54' W 005°19'0 0.5
2018-Jun-10 20:00N 35°54' W 005°19'1325.5
2018-Jun-10 19:30N 36°06' W 005°23'3 2.1
2018-Jun-10 18:12N 36°08' W 005°26'2 8.0
2018-Jun-10 17:56N 36°07' W 005°24'1227.2
2018-Jun-10 17:31N 35°56' W 005°20'2 4.9
2018-Jun-10 17:00N 35°54' W 005°19'0 0.1
2018-Jun-10 16:30N 35°54' W 005°19'1121.1
2018-Jun-10 16:01N 36°04' W 005°23'5 3.9
2018-Jun-10 14:45N 36°08' W 005°26'1520.9
2018-Jun-10 14:01N 35°54' W 005°19'1 1.0
2018-Jun-10 13:30N 35°54' W 005°19'1222.5
2018-Jun-10 12:59N 36°05' W 005°24'4 3.3
2018-Jun-10 11:55N 36°08' W 005°26'511.8
2018-Jun-10 11:31N 36°04' W 005°23'1121.3
2018-Jun-10 11:00N 35°54' W 005°19'0 0.0
2018-Jun-10 10:30N 35°54' W 005°19'1019.1
2018-Jun-10 10:01N 36°03' W 005°23'6 3.7
2018-Jun-10 08:26N 36°08' W 005°26'612.8
2018-Jun-10 08:01N 36°04' W 005°21'1020.8
2018-Jun-10 07:30N 35°54' W 005°19'0 0.0
2018-Jun-10 07:00N 35°54' W 005°19'714.8
2018-Jun-10 06:31N 36°01' W 005°21'816.2
2018-Jun-10 06:01N 36°08' W 005°26'0 0.1
2018-Jun-10 05:27N 36°08' W 005°26'0 0.0
2018-Jun-10 05:00N 36°08' W 005°26'0 0.0
2018-Jun-10 04:30N 36°08' W 005°26'0 0.0
2018-Jun-10 04:00N 36°08' W 005°26'0 0.0
2018-Jun-10 03:30N 36°08' W 005°26'0 0.0
2018-Jun-10 03:00N 36°08' W 005°26'0 0.0
2018-Jun-10 02:30N 36°08' W 005°26'0 0.0
2018-Jun-10 01:58N 36°08' W 005°26'0 0.0
2018-Jun-10 01:30N 36°08' W 005°26'0 0.0
2018-Jun-10 00:59N 36°08' W 005°26'0 0.0
2018-Jun-10 00:29N 36°08' W 005°26'0 0.0
2018-Jun-10 00:00N 36°08' W 005°26'0 0.0
2018-Jun-09 23:30N 36°08' W 005°26'0 0.0
2018-Jun-09 23:00N 36°08' W 005°26'0 0.0
2018-Jun-09 22:28N 36°08' W 005°26'0 0.0
2018-Jun-09 22:00N 36°08' W 005°26'0 0.0
2018-Jun-09 21:30N 36°08' W 005°26'5 9.9
2018-Jun-09 21:01N 36°05' W 005°22'1121.9
2018-Jun-09 20:30N 35°54' W 005°19'0 0.1
2018-Jun-09 20:01N 35°54' W 005°19'1121.5
2018-Jun-09 19:31N 36°04' W 005°23'5 8.4
2018-Jun-09 18:57N 36°08' W 005°26'0 0.0
2018-Jun-09 18:28N 36°08' W 005°26'1 2.8
2018-Jun-09 18:01N 36°09' W 005°26'1325.6
2018-Jun-09 17:30N 35°57' W 005°20'3 6.9
2018-Jun-09 17:00N 35°54' W 005°19'0 0.1
2018-Jun-09 16:30N 35°54' W 005°19'1020.4
2018-Jun-09 16:01N 36°04' W 005°22'5 5.3
2018-Jun-09 15:00N 36°08' W 005°26'2 3.5
2018-Jun-09 14:30N 36°09' W 005°24'1427.9
2018-Jun-09 14:01N 35°55' W 005°19'2 3.7
2018-Jun-09 13:31N 35°54' W 005°19'1019.2
2018-Jun-09 13:01N 36°03' W 005°22'611.8
2018-Jun-09 12:30N 36°08' W 005°26'0 0.1
2018-Jun-09 12:00N 36°08' W 005°26'612.6
2018-Jun-09 11:31N 36°03' W 005°22'918.5
2018-Jun-09 11:01N 35°54' W 005°19'0 0.3
2018-Jun-09 10:31N 35°54' W 005°19'1121.8
2018-Jun-09 10:01N 36°04' W 005°23'3 1.5
2018-Jun-09 07:52N 36°02' W 005°20'822.4
2018-Jun-09 07:31N 35°54' W 005°19'0 0.1
2018-Jun-09 07:00N 35°54' W 005°19'611.9
2018-Jun-09 06:31N 35°60' W 005°19'10 1.7
2018-Jun-09 00:41N 36°08' W 005°26'  

Dump ship's entire track history